createdAt,value
2019-05-10T00:03:19.237Z,55.14
2019-05-10T00:06:28.062Z,55.01
2019-05-10T00:08:58.836Z,54.66
2019-05-10T00:12:07.541Z,54.87
2019-05-10T00:14:58.207Z,56.25
2019-05-10T00:20:34.788Z,55.78
2019-05-10T00:23:06.017Z,55.68
2019-05-10T00:25:56.921Z,55.69
2019-05-10T00:28:33.072Z,55.08
2019-05-10T00:33:55.266Z,55.19
2019-05-10T00:36:26.352Z,55.67
2019-05-10T00:38:58.411Z,56.11
2019-05-10T00:44:39.901Z,56.15
2019-05-10T00:47:31.168Z,56.00
2019-05-10T00:50:21.027Z,56.25
2019-05-10T00:55:44.416Z,56.43
2019-05-10T00:58:15.606Z,56.91
2019-05-10T01:00:47.576Z,57.04
2019-05-10T01:03:19.709Z,57.25
2019-05-10T01:05:50.850Z,57.08
2019-05-10T01:08:24.722Z,56.75
2019-05-10T01:10:55.848Z,56.34
2019-05-10T01:13:27.004Z,55.86
2019-05-10T01:15:58.985Z,54.63
2019-05-10T01:18:30.183Z,54.63
2019-05-10T01:21:20.790Z,54.81
2019-05-10T01:23:51.940Z,54.82
2019-05-10T01:29:13.294Z,55.94
2019-05-10T01:31:45.353Z,56.34
2019-05-10T01:34:35.571Z,55.33
2019-05-10T01:37:07.541Z,55.12
2019-05-10T01:43:00.493Z,56.27
2019-05-10T01:45:31.632Z,56.03
2019-05-10T01:48:03.029Z,55.89
2019-05-10T01:50:53.067Z,55.93
2019-05-10T01:53:24.365Z,56.23
2019-05-10T01:55:56.197Z,55.73
2019-05-10T01:58:46.365Z,55.41
2019-05-10T02:01:17.581Z,55.52
2019-05-10T02:03:49.662Z,55.56
2019-05-10T02:06:23.907Z,55.72
2019-05-10T02:08:55.352Z,55.19
2019-05-10T02:11:26.555Z,55.48
2019-05-10T02:13:57.759Z,55.53
2019-05-10T02:16:28.877Z,55.42
2019-05-10T02:19:00.111Z,55.30
2019-05-10T02:21:32.007Z,55.15
2019-05-10T02:24:03.216Z,55.15
2019-05-10T02:26:34.372Z,55.18
2019-05-10T02:29:26.154Z,55.66
2019-05-10T02:31:58.128Z,56.00
2019-05-10T02:34:28.303Z,56.18
2019-05-10T02:40:08.760Z,56.83
2019-05-10T02:42:40.754Z,56.55
2019-05-10T02:45:31.144Z,56.45
2019-05-10T02:48:02.280Z,56.56
2019-05-10T02:50:52.053Z,56.08
2019-05-10T02:53:23.255Z,55.76
2019-05-10T02:55:57.484Z,55.47
2019-05-10T02:58:47.468Z,56.42
2019-05-10T03:01:18.795Z,56.42
2019-05-10T03:04:09.268Z,55.82
2019-05-10T03:10:20.733Z,56.32
2019-05-10T03:13:02.892Z,56.00
2019-05-10T03:15:53.369Z,56.60
2019-05-10T03:18:37.392Z,56.55
2019-05-10T03:21:09.489Z,56.55
2019-05-10T03:26:50.693Z,56.30
2019-05-10T03:29:48.658Z,56.58
2019-05-10T03:32:09.811Z,56.27
2019-05-10T03:34:41.748Z,56.45
2019-05-10T03:37:51.979Z,56.54
2019-05-10T03:40:23.929Z,56.52
2019-05-10T03:42:54.266Z,56.64
2019-05-10T03:48:36.452Z,56.26
2019-05-10T03:53:57.593Z,56.12
2019-05-10T03:56:31.213Z,55.99
2019-05-10T03:59:22.187Z,55.98
2019-05-10T04:02:13.876Z,55.98
2019-05-10T04:07:26.922Z,55.90
2019-05-10T04:09:57.963Z,56.26
2019-05-10T04:12:28.855Z,56.48
2019-05-10T04:15:12.992Z,56.42
2019-05-10T04:17:38.016Z,56.42
2019-05-10T04:20:09.342Z,56.08
2019-05-10T04:22:40.432Z,55.52
2019-05-10T04:25:11.595Z,55.06
2019-05-10T04:27:42.691Z,54.71
2019-05-10T04:30:18.156Z,53.87
2019-05-10T04:33:08.233Z,53.23
2019-05-10T04:41:32.135Z,50.92
2019-05-10T04:44:02.431Z,50.43
2019-05-10T04:46:32.661Z,49.40
2019-05-10T04:49:22.482Z,49.65
2019-05-10T04:52:12.699Z,49.16
2019-05-10T04:55:02.614Z,48.92
2019-05-10T04:57:49.245Z,49.64
2019-05-10T05:00:25.519Z,51.37
2019-05-10T05:02:56.630Z,52.52
2019-05-10T05:05:45.853Z,53.97
2019-05-10T05:08:16.547Z,54.45
2019-05-10T05:13:56.090Z,55.28
2019-05-10T05:16:26.360Z,54.87
2019-05-10T05:18:56.719Z,53.05
2019-05-10T05:27:20.174Z,45.23
2019-05-10T05:29:53.187Z,44.46
2019-05-10T05:32:23.405Z,43.87
2019-05-10T05:45:38.396Z,43.48
2019-05-10T05:48:39.553Z,43.61
2019-05-10T05:50:59.514Z,43.63
2019-05-10T05:56:52.972Z,43.32
2019-05-10T06:02:24.855Z,43.40
2019-05-10T06:05:34.570Z,45.03
2019-05-10T06:08:21.252Z,45.03
2019-05-10T06:10:58.183Z,44.29
2019-05-10T06:13:29.336Z,45.61
2019-05-10T06:15:55.032Z,44.49
2019-05-10T06:18:47.204Z,41.00
2019-05-10T06:21:18.082Z,41.00
2019-05-10T06:26:58.217Z,40.22
2019-05-10T06:29:44.787Z,39.46
2019-05-10T06:32:15.284Z,39.01
2019-05-10T06:35:04.855Z,37.91
2019-05-10T06:43:07.106Z,37.97
2019-05-10T06:45:34.588Z,37.34
2019-05-10T06:48:44.188Z,37.80
2019-05-10T06:51:14.320Z,37.65
2019-05-10T06:54:05.887Z,38.48
2019-05-10T06:59:57.085Z,38.68
2019-05-10T07:02:32.193Z,38.84
2019-05-10T07:05:20.232Z,38.22
2019-05-10T07:07:52.812Z,37.86
2019-05-10T07:10:45.242Z,39.23
2019-05-10T07:13:54.639Z,38.65
2019-05-10T07:16:36.812Z,37.21
2019-05-10T07:21:52.561Z,35.90
2019-05-10T07:24:27.857Z,34.46
2019-05-10T07:39:49.347Z,35.42
2019-05-10T07:42:21.825Z,34.96
2019-05-10T07:48:08.307Z,34.46
2019-05-10T07:53:49.851Z,33.16
2019-05-10T07:56:51.880Z,33.12
2019-05-10T08:03:02.342Z,32.58
2019-05-10T08:05:39.248Z,33.54
2019-05-10T08:11:28.579Z,32.35
2019-05-10T08:16:42.860Z,32.06
2019-05-10T08:19:37.465Z,31.38
2019-05-10T08:22:25.500Z,33.11
2019-05-10T08:31:26.210Z,32.86
2019-05-10T08:36:57.676Z,35.28
2019-05-10T08:39:44.088Z,35.38
2019-05-10T08:42:40.149Z,35.38
2019-05-10T08:45:03.935Z,34.84
2019-05-10T08:50:57.116Z,33.20
2019-05-10T08:53:47.100Z,33.24
2019-05-10T08:56:23.487Z,31.91
2019-05-10T08:59:04.195Z,31.65
2019-05-10T09:04:50.203Z,30.43
2019-05-10T09:08:03.255Z,29.99
2019-05-10T09:11:11.862Z,29.51
2019-05-10T09:13:53.398Z,28.37
2019-05-10T09:16:29.175Z,30.36
2019-05-10T09:19:18.827Z,30.54
2019-05-10T09:24:48.319Z,31.16
2019-05-10T09:33:18.414Z,30.93
2019-05-10T09:35:52.345Z,30.69
2019-05-10T09:38:28.600Z,30.23
2019-05-10T09:40:59.602Z,30.71
2019-05-10T09:43:50.476Z,30.71
2019-05-10T09:46:27.645Z,29.62
2019-05-10T09:49:18.501Z,29.15
2019-05-10T09:51:55.056Z,28.93
2019-05-10T09:54:29.660Z,30.70
2019-05-10T10:00:38.025Z,27.60
2019-05-10T10:03:08.788Z,26.88
2019-05-10T10:05:43.399Z,26.88
2019-05-10T10:08:18.042Z,27.68
2019-05-10T10:10:52.408Z,27.79
2019-05-10T10:19:50.765Z,27.53
2019-05-10T10:22:30.817Z,28.30
2019-05-10T10:25:17.687Z,27.38
2019-05-10T10:27:44.592Z,27.99
2019-05-10T10:30:37.302Z,26.33
2019-05-10T10:33:29.646Z,25.60
2019-05-10T10:36:10.750Z,24.48
2019-05-10T10:42:17.689Z,24.41
2019-05-10T10:48:17.849Z,23.05
2019-05-10T10:50:55.573Z,22.85
2019-05-10T10:53:58.287Z,24.05
2019-05-10T10:57:09.853Z,23.03
2019-05-10T10:59:43.204Z,22.89
2019-05-10T11:02:31.415Z,24.67
2019-05-10T11:07:33.775Z,23.62
2019-05-10T11:10:21.587Z,21.16
2019-05-10T11:12:41.255Z,21.01
2019-05-10T11:28:12.488Z,20.42
2019-05-10T11:34:06.101Z,20.82
2019-05-10T11:39:45.131Z,22.06
2019-05-10T11:42:11.870Z,23.22
2019-05-10T11:44:49.965Z,21.34
2019-05-10T11:47:48.177Z,21.62
2019-05-10T11:50:34.912Z,22.66
2019-05-10T11:53:06.839Z,21.75
2019-05-10T11:55:39.765Z,21.54
2019-05-10T12:01:22.272Z,20.31
2019-05-10T12:03:54.336Z,21.83
2019-05-10T12:09:13.818Z,21.70
2019-05-10T12:11:52.292Z,21.09
2019-05-10T12:17:47.599Z,19.79
2019-05-10T12:20:51.576Z,20.91
2019-05-10T12:23:22.889Z,21.19
2019-05-10T12:28:41.173Z,20.98
2019-05-10T12:35:08.687Z,20.29
2019-05-10T12:40:45.828Z,21.17
2019-05-10T12:43:40.932Z,21.27
2019-05-10T12:49:17.061Z,20.28
2019-05-10T12:52:16.096Z,21.19
2019-05-10T12:54:50.415Z,21.30
2019-05-10T12:57:27.069Z,21.62
2019-05-10T12:59:59.447Z,20.92
2019-05-10T13:09:41.508Z,20.37
2019-05-10T13:12:11.633Z,20.97
2019-05-10T13:18:49.803Z,21.64
2019-05-10T13:27:11.041Z,20.88
2019-05-10T13:30:27.840Z,20.80
2019-05-10T13:41:33.106Z,21.64
2019-05-10T13:47:43.236Z,20.47
2019-05-10T14:03:44.494Z,19.76
2019-05-10T14:06:54.483Z,19.06
2019-05-10T14:19:01.195Z,20.49
2019-05-10T14:22:30.206Z,20.27
2019-05-10T14:24:52.179Z,20.02
2019-05-10T14:27:38.746Z,19.39
2019-05-10T14:30:17.965Z,18.28
2019-05-10T14:33:14.657Z,17.96
2019-05-10T14:36:07.733Z,17.69
2019-05-10T14:38:41.610Z,18.38
2019-05-10T14:41:17.281Z,18.68
2019-05-10T14:46:51.352Z,18.07
2019-05-10T14:50:04.020Z,17.85
2019-05-10T14:53:13.625Z,17.47
2019-05-10T14:59:08.370Z,17.45
2019-05-10T15:05:48.839Z,17.52
2019-05-10T15:08:49.829Z,17.52
2019-05-10T15:11:49.996Z,17.93
2019-05-10T15:14:22.071Z,17.80
2019-05-10T15:16:54.296Z,17.38
2019-05-10T15:19:30.785Z,17.25
2019-05-10T15:22:23.137Z,17.65
2019-05-10T15:28:17.692Z,18.29
2019-05-10T15:31:23.557Z,18.56
2019-05-10T15:42:36.351Z,17.99
2019-05-10T15:48:04.535Z,18.05
2019-05-10T15:50:41.180Z,18.80
2019-05-10T15:53:13.826Z,19.62
2019-05-10T15:56:25.009Z,19.81
2019-05-10T15:58:57.165Z,19.87
2019-05-10T16:02:07.149Z,19.48
2019-05-10T16:10:28.432Z,18.21
2019-05-10T16:13:23.250Z,18.82
2019-05-10T16:16:21.978Z,19.83
2019-05-10T16:18:55.988Z,19.83
2019-05-10T16:21:52.049Z,20.14
2019-05-10T16:24:26.136Z,20.14
2019-05-10T16:30:36.451Z,20.43
2019-05-10T16:36:49.148Z,20.34
2019-05-10T16:48:40.476Z,20.46
2019-05-10T16:54:28.462Z,20.89
2019-05-10T16:57:24.475Z,20.51
2019-05-10T17:07:13.047Z,20.19
2019-05-10T17:10:46.462Z,20.75
2019-05-10T17:17:00.007Z,20.59
2019-05-10T17:26:54.613Z,21.30
2019-05-10T17:33:23.392Z,21.43
2019-05-10T17:39:32.011Z,20.94
2019-05-10T17:55:55.601Z,22.06
2019-05-10T17:58:56.317Z,22.22
2019-05-10T18:08:10.579Z,23.38
2019-05-10T18:14:21.472Z,23.53
2019-05-10T18:17:32.787Z,24.01
2019-05-10T18:21:15.663Z,23.54
2019-05-10T18:27:06.757Z,22.96
2019-05-10T18:33:06.666Z,23.67
2019-05-10T18:35:52.792Z,23.65
2019-05-10T18:39:03.394Z,23.98
2019-05-10T18:42:06.168Z,24.12
2019-05-10T18:51:42.760Z,24.18
2019-05-10T18:57:59.662Z,24.93
2019-05-10T19:16:58.376Z,26.36
2019-05-10T19:19:42.122Z,26.20
2019-05-10T19:22:54.070Z,25.80
2019-05-10T19:28:49.323Z,26.49
2019-05-10T19:31:20.042Z,26.89
2019-05-10T19:33:57.249Z,27.44
2019-05-10T19:40:03.725Z,28.47
2019-05-10T19:46:39.265Z,28.70
2019-05-10T19:49:51.870Z,29.05
2019-05-10T19:52:49.397Z,29.38
2019-05-10T19:59:11.910Z,29.88
2019-05-10T20:04:29.802Z,29.91
2019-05-10T20:07:45.853Z,30.30
2019-05-10T20:10:23.730Z,30.82
2019-05-10T20:13:16.227Z,31.52
2019-05-10T20:16:20.179Z,31.60
2019-05-10T20:18:55.264Z,31.60
2019-05-10T20:22:11.794Z,31.22
2019-05-10T20:28:24.063Z,31.04
2019-05-10T20:31:31.391Z,31.31
2019-05-10T20:34:41.496Z,31.45
2019-05-10T20:37:16.010Z,31.71
2019-05-10T20:39:48.008Z,31.72
2019-05-10T20:42:20.274Z,31.76
2019-05-10T20:45:31.499Z,31.45
2019-05-10T20:48:02.647Z,31.50
2019-05-10T20:50:36.283Z,31.61
2019-05-10T20:53:08.367Z,31.62
2019-05-10T20:58:44.399Z,31.65
2019-05-10T21:04:12.074Z,31.72
2019-05-10T21:06:53.334Z,31.71
2019-05-10T21:09:44.176Z,31.76
2019-05-10T21:12:16.106Z,31.70
2019-05-10T21:14:59.816Z,31.49
2019-05-10T21:17:48.969Z,31.41
2019-05-10T21:24:21.424Z,31.35
2019-05-10T21:33:03.025Z,31.55
2019-05-10T21:35:39.866Z,31.66
2019-05-10T21:38:33.168Z,31.80
2019-05-10T21:44:07.246Z,32.01
2019-05-10T21:46:56.992Z,32.01
2019-05-10T21:49:59.257Z,32.06
2019-05-10T21:52:51.233Z,31.70
2019-05-10T21:55:13.015Z,31.55
2019-05-10T21:57:46.300Z,32.19
2019-05-10T22:09:12.133Z,33.97
2019-05-10T22:11:52.582Z,34.64
2019-05-10T22:14:23.460Z,34.58
2019-05-10T22:16:55.180Z,34.57
2019-05-10T22:19:26.239Z,34.39
2019-05-10T22:25:03.146Z,34.22
2019-05-10T22:27:52.884Z,34.22
2019-05-10T22:30:36.532Z,34.77
2019-05-10T22:33:25.429Z,34.40
2019-05-10T22:35:57.840Z,34.40
2019-05-10T22:39:05.329Z,34.73
2019-05-10T22:44:50.705Z,34.83
2019-05-10T22:50:56.781Z,35.49
2019-05-10T22:54:00.020Z,35.88
2019-05-10T22:56:40.779Z,36.04
2019-05-10T22:59:51.945Z,36.08
2019-05-10T23:02:36.237Z,36.15
2019-05-10T23:08:01.172Z,36.26
2019-05-10T23:13:42.675Z,36.63
2019-05-10T23:27:53.528Z,37.80
2019-05-10T23:30:45.926Z,38.44
2019-05-10T23:33:22.201Z,39.52
2019-05-10T23:38:50.294Z,41.46
2019-05-10T23:41:40.482Z,43.11
2019-05-10T23:46:55.369Z,43.44
2019-05-10T23:49:27.362Z,43.57
2019-05-10T23:52:37.632Z,43.52
2019-05-10T23:55:08.704Z,43.91
2019-05-10T23:57:41.780Z,44.74
